• Join FlightAware (Why Join?)
  • Login
  • US Flag 
01:56PM EDT


 

Airport Tracker/Info


-or-


 

Live Flight TrackerFlight Track Log ✈ N1206N ✈ 05-Jul-2014 ✈ KAFJ - KCKB

Flight Track Log - Related Links

Times and Time Zones

All times are in EDT time to prevent confusion due to time zone crossing. See the N1206N flight status page for this flight to view local times or setup timezone preferences in your user account.

Time Position Orientation Groundspeed Altitude Reporting Facility
EDT Latitude Longitude Course Direction KTS MPH feet Rate Location/Type
09:30AM 39.9653 -80.3831 176° South 188 216 3,100  Level Cleveland Center
09:31AM 39.9119 -80.3786 176° South 191 220 3,100  Level Cleveland Center
09:32AM 39.8600 -80.3711 174° South 191 220 3,200  Climbing Cleveland Center
09:33AM 39.8999 -80.2607 177° South  Level FlightAware Approximate
09:33AM 39.8075 -80.3639 174° South 190 219 3,200  Level Cleveland Center
09:34AM 39.8609 -80.2579 177° South  Level FlightAware Approximate
09:34AM 39.7556 -80.3544 172° South 190 219 3,200  Level Cleveland Center
09:35AM 39.7033 -80.3436 171° South 190 219 3,100 -60 Descending Cleveland Center
09:36AM 39.6408 -80.3344 174° South 190 219 3,100  Level Cleveland Center
09:37AM 39.6150 -80.2864 125° Southeast 191 220 3,200 240 Climbing Cleveland Center
09:38AM 39.6381 -80.2331 61° Northeast 184 212 3,700 240 Climbing Cleveland Center
09:39AM 39.6717 -80.2014 36° Northeast 168 193 3,800  Climbing Cleveland Center
09:40AM 39.6992 -80.2367 315° West 168 193 3,800  Level Cleveland Center
09:41AM 39.6617 -80.2364 180° South 167 192 3,900  Climbing Cleveland Center
09:42AM 39.6217 -80.2056 149° Southeast 164 189 3,800 -60 Descending Cleveland Center
09:43AM 39.5819 -80.1761 150° Southeast 164 189 3,800  Level Cleveland Center
09:44AM 39.5333 -80.1419 152° Southeast 164 189 3,800  Level Cleveland Center
09:45AM 39.4892 -80.1256 164° South 164 189 3,800 -60 Level Cleveland Center
09:46AM 39.4481 -80.1425 198° South 163 188 3,700 -240 Descending Cleveland Center
09:47AM 39.4067 -80.1703 207° Southwest 168 193 3,400 -540 Descending Cleveland Center
09:48AM 39.3628 -80.1928 202° Southwest 166 191 2,700 -720 Descending Cleveland Center
09:50AM 39.3115 -80.2082 193° South  Level FlightAware Approximate
09:57AM 39.2976 -80.2275 177° South  Level Estimated